sensor_id;sensor_type;location;lat;lon;timestamp;temperature;humidity
13806;DHT22;6974;53.606;9.872;2023-11-21T00:02:17;10.50;99.90
13806;DHT22;6974;53.606;9.872;2023-11-21T00:04:45;10.50;99.90
13806;DHT22;6974;53.606;9.872;2023-11-21T00:07:13;10.50;99.90
13806;DHT22;6974;53.606;9.872;2023-11-21T00:09:41;10.50;99.90
13806;DHT22;6974;53.606;9.872;2023-11-21T00:12:08;10.40;99.90
13806;DHT22;6974;53.606;9.872;2023-11-21T00:14:35;10.40;99.90
13806;DHT22;6974;53.606;9.872;2023-11-21T00:17:03;10.40;99.90
13806;DHT22;6974;53.606;9.872;2023-11-21T00:19:30;10.40;99.90
13806;DHT22;6974;53.606;9.872;2023-11-21T00:21:59;10.40;99.90
13806;DHT22;6974;53.606;9.872;2023-11-21T00:24:26;10.40;99.90
13806;DHT22;6974;53.606;9.872;2023-11-21T00:26:52;10.30;99.90
13806;DHT22;6974;53.606;9.872;2023-11-21T00:29:19;10.30;99.90
13806;DHT22;6974;53.606;9.872;2023-11-21T00:31:47;10.30;99.90
13806;DHT22;6974;53.606;9.872;2023-11-21T00:34:14;10.30;99.90
13806;DHT22;6974;53.606;9.872;2023-11-21T00:36:41;10.20;99.90
13806;DHT22;6974;53.606;9.872;2023-11-21T00:39:09;10.20;99.90
13806;DHT22;6974;53.606;9.872;2023-11-21T00:41:37;10.20;99.90
13806;DHT22;6974;53.606;9.872;2023-11-21T00:44:04;10.10;99.90
13806;DHT22;6974;53.606;9.872;2023-11-21T00:46:32;10.10;99.90
13806;DHT22;6974;53.606;9.872;2023-11-21T00:48:59;10.10;99.90
13806;DHT22;6974;53.606;9.872;2023-11-21T00:51:26;10.20;99.90
13806;DHT22;6974;53.606;9.872;2023-11-21T00:53:52;10.10;99.90
13806;DHT22;6974;53.606;9.872;2023-11-21T00:56:21;10.00;99.90
13806;DHT22;6974;53.606;9.872;2023-11-21T00:58:47;10.00;99.90
13806;DHT22;6974;53.606;9.872;2023-11-21T01:01:15;10.00;99.90
13806;DHT22;6974;53.606;9.872;2023-11-21T01:03:42;10.00;99.90
13806;DHT22;6974;53.606;9.872;2023-11-21T01:06:09;10.00;99.90
13806;DHT22;6974;53.606;9.872;2023-11-21T01:08:36;9.90;99.90
13806;DHT22;6974;53.606;9.872;2023-11-21T01:11:03;9.90;99.90
13806;DHT22;6974;53.606;9.872;2023-11-21T01:13:34;9.90;99.90
13806;DHT22;6974;53.606;9.872;2023-11-21T01:16:01;9.90;99.90
13806;DHT22;6974;53.606;9.872;2023-11-21T01:18:29;9.90;99.90
13806;DHT22;6974;53.606;9.872;2023-11-21T01:20:56;9.90;99.90
13806;DHT22;6974;53.606;9.872;2023-11-21T01:23:23;9.90;99.90
13806;DHT22;6974;53.606;9.872;2023-11-21T01:25:49;9.80;99.90
13806;DHT22;6974;53.606;9.872;2023-11-21T01:28:17;9.80;99.90
13806;DHT22;6974;53.606;9.872;2023-11-21T01:30:46;9.80;99.90
13806;DHT22;6974;53.606;9.872;2023-11-21T01:33:13;9.70;99.90
13806;DHT22;6974;53.606;9.872;2023-11-21T01:35:41;9.70;99.90
13806;DHT22;6974;53.606;9.872;2023-11-21T01:38:08;9.70;99.90
13806;DHT22;6974;53.606;9.872;2023-11-21T01:40:35;9.70;99.90
13806;DHT22;6974;53.606;9.872;2023-11-21T01:43:02;9.70;99.90
13806;DHT22;6974;53.606;9.872;2023-11-21T01:45:29;9.70;99.90
13806;DHT22;6974;53.606;9.872;2023-11-21T01:48:00;9.60;99.90
13806;DHT22;6974;53.606;9.872;2023-11-21T01:50:27;9.60;99.90
13806;DHT22;6974;53.606;9.872;2023-11-21T01:52:54;9.50;99.90
13806;DHT22;6974;53.606;9.872;2023-11-21T01:55:22;9.50;99.90
13806;DHT22;6974;53.606;9.872;2023-11-21T01:57:49;9.50;99.90
13806;DHT22;6974;53.606;9.872;2023-11-21T02:00:16;9.50;99.90
13806;DHT22;6974;53.606;9.872;2023-11-21T02:02:45;9.50;99.90
13806;DHT22;6974;53.606;9.872;2023-11-21T02:05:14;9.50;99.90
13806;DHT22;6974;53.606;9.872;2023-11-21T02:07:42;9.50;99.90
13806;DHT22;6974;53.606;9.872;2023-11-21T02:10:10;9.50;99.90
13806;DHT22;6974;53.606;9.872;2023-11-21T02:12:40;9.40;99.90
13806;DHT22;6974;53.606;9.872;2023-11-21T02:15:08;9.40;99.90
13806;DHT22;6974;53.606;9.872;2023-11-21T02:17:40;9.40;99.90
13806;DHT22;6974;53.606;9.872;2023-11-21T02:20:10;9.30;99.90
13806;DHT22;6974;53.606;9.872;2023-11-21T02:22:42;9.30;99.90
13806;DHT22;6974;53.606;9.872;2023-11-21T02:25:10;9.30;99.90
13806;DHT22;6974;53.606;9.872;2023-11-21T02:27:37;9.30;99.90
13806;DHT22;6974;53.606;9.872;2023-11-21T02:30:05;9.30;99.90
13806;DHT22;6974;53.606;9.872;2023-11-21T02:32:33;9.30;99.90
13806;DHT22;6974;53.606;9.872;2023-11-21T02:35:00;9.30;99.90
13806;DHT22;6974;53.606;9.872;2023-11-21T02:37:28;9.30;99.90
13806;DHT22;6974;53.606;9.872;2023-11-21T02:39:54;9.30;99.90
13806;DHT22;6974;53.606;9.872;2023-11-21T02:42:23;9.30;99.90
13806;DHT22;6974;53.606;9.872;2023-11-21T02:44:49;9.30;99.90
13806;DHT22;6974;53.606;9.872;2023-11-21T02:47:16;9.30;99.90
13806;DHT22;6974;53.606;9.872;2023-11-21T02:49:43;9.30;99.90
13806;DHT22;6974;53.606;9.872;2023-11-21T02:52:10;9.20;99.90
13806;DHT22;6974;53.606;9.872;2023-11-21T02:54:37;9.20;99.90
13806;DHT22;6974;53.606;9.872;2023-11-21T02:57:04;9.20;99.90
13806;DHT22;6974;53.606;9.872;2023-11-21T02:59:32;9.20;99.90
13806;DHT22;6974;53.606;9.872;2023-11-21T03:01:59;9.20;99.90
13806;DHT22;6974;53.606;9.872;2023-11-21T03:04:26;9.20;99.90
13806;DHT22;6974;53.606;9.872;2023-11-21T03:06:53;9.10;99.90
13806;DHT22;6974;53.606;9.872;2023-11-21T03:09:19;9.10;99.90
13806;DHT22;6974;53.606;9.872;2023-11-21T03:11:46;9.10;99.90
13806;DHT22;6974;53.606;9.872;2023-11-21T03:14:13;9.10;99.90
13806;DHT22;6974;53.606;9.872;2023-11-21T03:16:41;9.10;99.90
13806;DHT22;6974;53.606;9.872;2023-11-21T03:19:09;9.10;99.90
13806;DHT22;6974;53.606;9.872;2023-11-21T03:21:36;9.10;99.90
13806;DHT22;6974;53.606;9.872;2023-11-21T03:24:04;9.10;99.90
13806;DHT22;6974;53.606;9.872;2023-11-21T03:26:31;9.10;99.90
13806;DHT22;6974;53.606;9.872;2023-11-21T03:28:58;9.10;99.90
13806;DHT22;6974;53.606;9.872;2023-11-21T03:31:25;9.10;99.90
13806;DHT22;6974;53.606;9.872;2023-11-21T03:33:54;9.10;99.90
13806;DHT22;6974;53.606;9.872;2023-11-21T03:36:21;9.00;99.90
13806;DHT22;6974;53.606;9.872;2023-11-21T03:38:48;9.00;99.90
13806;DHT22;6974;53.606;9.872;2023-11-21T03:41:15;9.00;99.90
13806;DHT22;6974;53.606;9.872;2023-11-21T03:43:42;9.00;99.90
13806;DHT22;6974;53.606;9.872;2023-11-21T03:46:08;9.00;99.90
13806;DHT22;6974;53.606;9.872;2023-11-21T03:48:35;9.00;99.90
13806;DHT22;6974;53.606;9.872;2023-11-21T03:51:04;9.00;99.90
13806;DHT22;6974;53.606;9.872;2023-11-21T03:53:31;9.00;99.90
13806;DHT22;6974;53.606;9.872;2023-11-21T03:55:58;9.00;99.90
13806;DHT22;6974;53.606;9.872;2023-11-21T03:58:24;9.00;99.90
13806;DHT22;6974;53.606;9.872;2023-11-21T04:00:51;9.00;99.90
13806;DHT22;6974;53.606;9.872;2023-11-21T04:03:18;9.00;99.90
13806;DHT22;6974;53.606;9.872;2023-11-21T04:05:45;9.00;99.90
13806;DHT22;6974;53.606;9.872;2023-11-21T04:08:14;9.00;99.90
13806;DHT22;6974;53.606;9.872;2023-11-21T04:10:41;9.00;99.90
13806;DHT22;6974;53.606;9.872;2023-11-21T04:13:07;9.00;99.90
13806;DHT22;6974;53.606;9.872;2023-11-21T04:15:34;9.00;99.90
13806;DHT22;6974;53.606;9.872;2023-11-21T04:18:01;8.90;99.90
13806;DHT22;6974;53.606;9.872;2023-11-21T04:20:28;8.90;99.90
13806;DHT22;6974;53.606;9.872;2023-11-21T04:22:55;8.90;99.90
13806;DHT22;6974;53.606;9.872;2023-11-21T04:25:23;9.00;99.90
13806;DHT22;6974;53.606;9.872;2023-11-21T04:27:50;9.00;99.90
13806;DHT22;6974;53.606;9.872;2023-11-21T04:30:17;9.00;99.90
13806;DHT22;6974;53.606;9.872;2023-11-21T04:32:44;9.00;99.90
13806;DHT22;6974;53.606;9.872;2023-11-21T04:35:10;9.00;99.90
13806;DHT22;6974;53.606;9.872;2023-11-21T04:37:37;9.00;99.90
13806;DHT22;6974;53.606;9.872;2023-11-21T04:40:06;8.90;99.90
13806;DHT22;6974;53.606;9.872;2023-11-21T04:42:36;8.90;99.90
13806;DHT22;6974;53.606;9.872;2023-11-21T04:45:03;8.90;99.90
13806;DHT22;6974;53.606;9.872;2023-11-21T04:47:34;8.90;99.90
13806;DHT22;6974;53.606;9.872;2023-11-21T04:50:01;8.90;99.90
13806;DHT22;6974;53.606;9.872;2023-11-21T04:52:29;8.90;99.90
13806;DHT22;6974;53.606;9.872;2023-11-21T04:54:55;8.90;99.90
13806;DHT22;6974;53.606;9.872;2023-11-21T04:57:24;8.90;99.90
13806;DHT22;6974;53.606;9.872;2023-11-21T04:59:52;8.90;99.90
13806;DHT22;6974;53.606;9.872;2023-11-21T05:02:19;8.90;99.90
13806;DHT22;6974;53.606;9.872;2023-11-21T05:04:46;8.80;99.90
13806;DHT22;6974;53.606;9.872;2023-11-21T05:07:13;8.90;99.90
13806;DHT22;6974;53.606;9.872;2023-11-21T05:09:42;8.90;99.90
13806;DHT22;6974;53.606;9.872;2023-11-21T05:12:11;8.90;99.90
13806;DHT22;6974;53.606;9.872;2023-11-21T05:14:38;8.90;99.90
13806;DHT22;6974;53.606;9.872;2023-11-21T05:17:06;8.90;99.90
13806;DHT22;6974;53.606;9.872;2023-11-21T05:19:34;8.90;99.90
13806;DHT22;6974;53.606;9.872;2023-11-21T05:22:02;8.90;99.90
13806;DHT22;6974;53.606;9.872;2023-11-21T05:24:28;8.90;99.90
13806;DHT22;6974;53.606;9.872;2023-11-21T05:26:55;8.80;99.90
13806;DHT22;6974;53.606;9.872;2023-11-21T05:29:23;8.90;99.90
13806;DHT22;6974;53.606;9.872;2023-11-21T05:31:51;8.80;99.90
13806;DHT22;6974;53.606;9.872;2023-11-21T05:34:19;8.80;99.90
13806;DHT22;6974;53.606;9.872;2023-11-21T05:36:49;8.80;99.90
13806;DHT22;6974;53.606;9.872;2023-11-21T05:39:16;8.80;99.90
13806;DHT22;6974;53.606;9.872;2023-11-21T05:41:43;8.80;99.90
13806;DHT22;6974;53.606;9.872;2023-11-21T05:44:09;8.80;99.90
13806;DHT22;6974;53.606;9.872;2023-11-21T05:46:37;8.80;99.90
13806;DHT22;6974;53.606;9.872;2023-11-21T05:49:05;8.80;99.90
13806;DHT22;6974;53.606;9.872;2023-11-21T05:51:35;8.80;99.90
13806;DHT22;6974;53.606;9.872;2023-11-21T05:54:01;8.90;99.90
13806;DHT22;6974;53.606;9.872;2023-11-21T05:56:28;8.80;99.90
13806;DHT22;6974;53.606;9.872;2023-11-21T05:58:55;8.90;99.90
13806;DHT22;6974;53.606;9.872;2023-11-21T06:01:22;8.80;99.90
13806;DHT22;6974;53.606;9.872;2023-11-21T06:03:49;8.90;99.90
13806;DHT22;6974;53.606;9.872;2023-11-21T06:06:15;8.90;99.90
13806;DHT22;6974;53.606;9.872;2023-11-21T06:08:44;8.80;99.90
13806;DHT22;6974;53.606;9.872;2023-11-21T06:11:10;8.80;99.90
13806;DHT22;6974;53.606;9.872;2023-11-21T06:13:38;8.80;99.90
13806;DHT22;6974;53.606;9.872;2023-11-21T06:16:05;8.80;99.90
13806;DHT22;6974;53.606;9.872;2023-11-21T06:18:32;8.90;99.90
13806;DHT22;6974;53.606;9.872;2023-11-21T06:21:00;8.90;99.90
13806;DHT22;6974;53.606;9.872;2023-11-21T06:23:27;8.90;99.90
13806;DHT22;6974;53.606;9.872;2023-11-21T06:25:55;8.90;99.90
13806;DHT22;6974;53.606;9.872;2023-11-21T06:28:22;8.90;99.90
13806;DHT22;6974;53.606;9.872;2023-11-21T06:30:49;8.80;99.90
13806;DHT22;6974;53.606;9.872;2023-11-21T06:33:16;8.80;99.90
13806;DHT22;6974;53.606;9.872;2023-11-21T06:35:43;8.80;99.90
13806;DHT22;6974;53.606;9.872;2023-11-21T06:38:10;8.80;99.90
13806;DHT22;6974;53.606;9.872;2023-11-21T06:40:37;8.80;99.90
13806;DHT22;6974;53.606;9.872;2023-11-21T06:43:05;8.80;99.90
13806;DHT22;6974;53.606;9.872;2023-11-21T06:45:32;8.80;99.90
13806;DHT22;6974;53.606;9.872;2023-11-21T06:48:00;8.80;99.90
13806;DHT22;6974;53.606;9.872;2023-11-21T06:50:27;8.90;99.90
13806;DHT22;6974;53.606;9.872;2023-11-21T06:52:54;8.80;99.90
13806;DHT22;6974;53.606;9.872;2023-11-21T06:55:20;8.80;99.90
13806;DHT22;6974;53.606;9.872;2023-11-21T06:57:47;8.80;99.90
13806;DHT22;6974;53.606;9.872;2023-11-21T07:00:17;8.80;99.90
13806;DHT22;6974;53.606;9.872;2023-11-21T07:02:44;8.90;99.90
13806;DHT22;6974;53.606;9.872;2023-11-21T07:05:11;8.90;99.90
13806;DHT22;6974;53.606;9.872;2023-11-21T07:07:39;8.90;99.90
13806;DHT22;6974;53.606;9.872;2023-11-21T07:10:07;8.90;99.90
13806;DHT22;6974;53.606;9.872;2023-11-21T07:12:34;8.90;99.90
13806;DHT22;6974;53.606;9.872;2023-11-21T07:15:01;8.80;99.90
13806;DHT22;6974;53.606;9.872;2023-11-21T07:17:32;8.90;99.90
13806;DHT22;6974;53.606;9.872;2023-11-21T07:20:00;8.90;99.90
13806;DHT22;6974;53.606;9.872;2023-11-21T07:22:27;8.80;99.90
13806;DHT22;6974;53.606;9.872;2023-11-21T07:24:54;8.80;99.90
13806;DHT22;6974;53.606;9.872;2023-11-21T07:27:22;8.90;99.90
13806;DHT22;6974;53.606;9.872;2023-11-21T07:29:49;8.80;99.90
13806;DHT22;6974;53.606;9.872;2023-11-21T07:32:16;8.80;99.90
13806;DHT22;6974;53.606;9.872;2023-11-21T07:34:44;8.90;99.90
13806;DHT22;6974;53.606;9.872;2023-11-21T07:37:11;8.90;99.90
13806;DHT22;6974;53.606;9.872;2023-11-21T07:39:38;8.90;99.90
13806;DHT22;6974;53.606;9.872;2023-11-21T07:42:07;8.90;99.90
13806;DHT22;6974;53.606;9.872;2023-11-21T07:44:34;8.90;99.90
13806;DHT22;6974;53.606;9.872;2023-11-21T07:47:01;8.90;99.90
13806;DHT22;6974;53.606;9.872;2023-11-21T07:49:28;8.90;99.90
13806;DHT22;6974;53.606;9.872;2023-11-21T07:51:56;8.90;99.90
13806;DHT22;6974;53.606;9.872;2023-11-21T07:54:23;8.90;99.90
13806;DHT22;6974;53.606;9.872;2023-11-21T07:56:50;8.90;99.90
13806;DHT22;6974;53.606;9.872;2023-11-21T07:59:17;8.90;99.90
13806;DHT22;6974;53.606;9.872;2023-11-21T08:01:44;8.90;99.90
13806;DHT22;6974;53.606;9.872;2023-11-21T08:04:11;8.90;99.90
13806;DHT22;6974;53.606;9.872;2023-11-21T08:06:38;8.90;99.90
13806;DHT22;6974;53.606;9.872;2023-11-21T08:09:07;8.90;99.90
13806;DHT22;6974;53.606;9.872;2023-11-21T08:11:34;9.00;99.90
13806;DHT22;6974;53.606;9.872;2023-11-21T08:14:01;9.00;99.90
13806;DHT22;6974;53.606;9.872;2023-11-21T08:16:28;9.00;99.90
13806;DHT22;6974;53.606;9.872;2023-11-21T08:18:55;9.00;99.90
13806;DHT22;6974;53.606;9.872;2023-11-21T08:21:22;9.00;99.90
13806;DHT22;6974;53.606;9.872;2023-11-21T08:23:50;9.00;99.90
13806;DHT22;6974;53.606;9.872;2023-11-21T08:26:21;9.00;99.90
13806;DHT22;6974;53.606;9.872;2023-11-21T08:28:49;9.00;99.90
13806;DHT22;6974;53.606;9.872;2023-11-21T08:31:22;9.00;99.90
13806;DHT22;6974;53.606;9.872;2023-11-21T08:33:49;9.00;99.90
13806;DHT22;6974;53.606;9.872;2023-11-21T08:36:16;9.00;99.90
13806;DHT22;6974;53.606;9.872;2023-11-21T08:38:43;9.00;99.90
13806;DHT22;6974;53.606;9.872;2023-11-21T08:41:10;9.00;99.90
13806;DHT22;6974;53.606;9.872;2023-11-21T08:43:38;9.10;99.90
13806;DHT22;6974;53.606;9.872;2023-11-21T08:46:05;9.20;99.90
13806;DHT22;6974;53.606;9.872;2023-11-21T08:48:35;9.20;99.90
13806;DHT22;6974;53.606;9.872;2023-11-21T08:51:02;9.20;99.90
13806;DHT22;6974;53.606;9.872;2023-11-21T08:53:30;9.20;99.90
13806;DHT22;6974;53.606;9.872;2023-11-21T08:55:57;9.10;99.90
13806;DHT22;6974;53.606;9.872;2023-11-21T08:58:24;9.20;99.90
13806;DHT22;6974;53.606;9.872;2023-11-21T09:00:52;9.20;99.90
13806;DHT22;6974;53.606;9.872;2023-11-21T09:03:19;9.20;99.90
13806;DHT22;6974;53.606;9.872;2023-11-21T09:05:46;9.20;99.90
13806;DHT22;6974;53.606;9.872;2023-11-21T09:08:13;9.20;99.90
13806;DHT22;6974;53.606;9.872;2023-11-21T09:10:40;9.20;99.90
13806;DHT22;6974;53.606;9.872;2023-11-21T09:13:08;9.20;99.90
13806;DHT22;6974;53.606;9.872;2023-11-21T09:15:35;9.00;99.90
13806;DHT22;6974;53.606;9.872;2023-11-21T09:18:04;9.00;99.90
13806;DHT22;6974;53.606;9.872;2023-11-21T09:20:31;9.00;99.90
13806;DHT22;6974;53.606;9.872;2023-11-21T09:22:58;9.00;99.90
13806;DHT22;6974;53.606;9.872;2023-11-21T09:25:25;9.00;99.90
13806;DHT22;6974;53.606;9.872;2023-11-21T09:27:54;9.00;99.90
13806;DHT22;6974;53.606;9.872;2023-11-21T09:30:21;9.00;99.90
13806;DHT22;6974;53.606;9.872;2023-11-21T09:32:50;9.00;99.90
13806;DHT22;6974;53.606;9.872;2023-11-21T09:35:18;9.00;99.90
13806;DHT22;6974;53.606;9.872;2023-11-21T09:37:45;9.00;99.90
13806;DHT22;6974;53.606;9.872;2023-11-21T09:40:12;8.90;99.90
13806;DHT22;6974;53.606;9.872;2023-11-21T09:42:48;9.00;99.90
13806;DHT22;6974;53.606;9.872;2023-11-21T09:45:21;9.00;99.90
13806;DHT22;6974;53.606;9.872;2023-11-21T09:47:49;9.00;99.90
13806;DHT22;6974;53.606;9.872;2023-11-21T09:50:20;9.00;99.90
13806;DHT22;6974;53.606;9.872;2023-11-21T09:52:54;9.00;99.90
13806;DHT22;6974;53.606;9.872;2023-11-21T09:55:23;9.00;99.90
13806;DHT22;6974;53.606;9.872;2023-11-21T09:57:52;9.00;99.90
13806;DHT22;6974;53.606;9.872;2023-11-21T10:00:22;9.00;99.90
13806;DHT22;6974;53.606;9.872;2023-11-21T10:02:49;9.10;99.90
13806;DHT22;6974;53.606;9.872;2023-11-21T10:05:20;9.00;99.90
13806;DHT22;6974;53.606;9.872;2023-11-21T10:07:48;9.10;99.90
13806;DHT22;6974;53.606;9.872;2023-11-21T10:10:19;9.00;99.90
13806;DHT22;6974;53.606;9.872;2023-11-21T10:12:49;9.10;99.90
13806;DHT22;6974;53.606;9.872;2023-11-21T10:15:21;9.00;99.90
13806;DHT22;6974;53.606;9.872;2023-11-21T10:17:49;9.00;99.90
13806;DHT22;6974;53.606;9.872;2023-11-21T10:20:20;9.00;99.90
13806;DHT22;6974;53.606;9.872;2023-11-21T10:22:47;8.90;99.90
13806;DHT22;6974;53.606;9.872;2023-11-21T11:13:17;8.80;99.90
13806;DHT22;6974;53.606;9.872;2023-11-21T11:15:47;8.80;99.90
13806;DHT22;6974;53.606;9.872;2023-11-21T11:18:15;8.80;99.90
13806;DHT22;6974;53.606;9.872;2023-11-21T11:20:45;8.80;99.90
13806;DHT22;6974;53.606;9.872;2023-11-21T14:10:42;8.10;99.90
13806;DHT22;6974;53.606;9.872;2023-11-21T14:13:12;8.30;99.90
13806;DHT22;6974;53.606;9.872;2023-11-21T14:15:42;8.30;99.90
13806;DHT22;6974;53.606;9.872;2023-11-21T14:18:11;8.40;99.90
13806;DHT22;6974;53.606;9.872;2023-11-21T14:20:42;8.40;99.90
13806;DHT22;6974;53.606;9.872;2023-11-21T14:23:10;8.50;99.90
13806;DHT22;6974;53.606;9.872;2023-11-21T14:25:37;8.50;99.90
13806;DHT22;6974;53.606;9.872;2023-11-21T14:28:22;8.50;99.90
13806;DHT22;6974;53.606;9.872;2023-11-21T14:30:57;8.40;99.90
13806;DHT22;6974;53.606;9.872;2023-11-21T14:33:31;8.40;99.90
13806;DHT22;6974;53.606;9.872;2023-11-21T14:35:58;8.40;99.90
13806;DHT22;6974;53.606;9.872;2023-11-21T14:38:25;8.40;99.90
13806;DHT22;6974;53.606;9.872;2023-11-21T14:40:53;8.30;99.90
13806;DHT22;6974;53.606;9.872;2023-11-21T14:43:22;8.40;99.90
13806;DHT22;6974;53.606;9.872;2023-11-21T14:45:50;8.30;99.90
13806;DHT22;6974;53.606;9.872;2023-11-21T14:48:17;8.30;99.90
13806;DHT22;6974;53.606;9.872;2023-11-21T14:50:59;8.30;99.90
13806;DHT22;6974;53.606;9.872;2023-11-21T14:53:40;8.30;99.90
13806;DHT22;6974;53.606;9.872;2023-11-21T14:56:19;8.30;99.90
13806;DHT22;6974;53.606;9.872;2023-11-21T14:58:54;8.40;99.90
13806;DHT22;6974;53.606;9.872;2023-11-21T15:01:23;8.30;99.90
13806;DHT22;6974;53.606;9.872;2023-11-21T15:04:02;8.30;99.90
13806;DHT22;6974;53.606;9.872;2023-11-21T15:06:31;8.30;99.90
13806;DHT22;6974;53.606;9.872;2023-11-21T15:08:58;8.30;99.90
13806;DHT22;6974;53.606;9.872;2023-11-21T15:11:41;8.30;99.90
13806;DHT22;6974;53.606;9.872;2023-11-21T15:14:10;8.30;99.90
13806;DHT22;6974;53.606;9.872;2023-11-21T15:16:38;8.30;99.90
13806;DHT22;6974;53.606;9.872;2023-11-21T15:19:08;8.20;99.90
13806;DHT22;6974;53.606;9.872;2023-11-21T15:21:38;8.20;99.90
13806;DHT22;6974;53.606;9.872;2023-11-21T15:24:05;8.20;99.90
13806;DHT22;6974;53.606;9.872;2023-11-21T15:26:33;8.20;99.90
13806;DHT22;6974;53.606;9.872;2023-11-21T15:29:00;8.20;99.90
13806;DHT22;6974;53.606;9.872;2023-11-21T15:31:28;8.20;99.90
13806;DHT22;6974;53.606;9.872;2023-11-21T15:33:55;8.20;99.90
13806;DHT22;6974;53.606;9.872;2023-11-21T15:36:25;8.20;99.90
13806;DHT22;6974;53.606;9.872;2023-11-21T15:38:54;8.20;99.90
13806;DHT22;6974;53.606;9.872;2023-11-21T15:41:21;8.20;99.90
13806;DHT22;6974;53.606;9.872;2023-11-21T15:43:48;8.20;99.90
13806;DHT22;6974;53.606;9.872;2023-11-21T15:50:33;8.20;99.90
13806;DHT22;6974;53.606;9.872;2023-11-21T15:53:33;8.20;99.90
13806;DHT22;6974;53.606;9.872;2023-11-21T15:56:00;8.20;99.90
13806;DHT22;6974;53.606;9.872;2023-11-21T15:58:27;8.20;99.90
13806;DHT22;6974;53.606;9.872;2023-11-21T16:00:54;8.20;99.90
13806;DHT22;6974;53.606;9.872;2023-11-21T16:03:23;8.20;99.90
13806;DHT22;6974;53.606;9.872;2023-11-21T16:05:51;8.20;99.90
13806;DHT22;6974;53.606;9.872;2023-11-21T16:08:18;8.20;99.90
13806;DHT22;6974;53.606;9.872;2023-11-21T16:10:44;8.20;99.90
13806;DHT22;6974;53.606;9.872;2023-11-21T16:13:11;8.20;99.90
13806;DHT22;6974;53.606;9.872;2023-11-21T16:15:38;8.20;99.90
13806;DHT22;6974;53.606;9.872;2023-11-21T16:18:05;8.20;99.90
13806;DHT22;6974;53.606;9.872;2023-11-21T16:20:33;8.20;99.90
13806;DHT22;6974;53.606;9.872;2023-11-21T16:23:01;8.10;99.90
13806;DHT22;6974;53.606;9.872;2023-11-21T16:25:29;8.10;99.90
13806;DHT22;6974;53.606;9.872;2023-11-21T16:27:56;8.10;99.90
13806;DHT22;6974;53.606;9.872;2023-11-21T16:30:24;8.10;99.90
13806;DHT22;6974;53.606;9.872;2023-11-21T16:32:52;8.10;99.90
13806;DHT22;6974;53.606;9.872;2023-11-21T16:35:20;8.10;99.90
13806;DHT22;6974;53.606;9.872;2023-11-21T16:37:46;8.10;99.90
13806;DHT22;6974;53.606;9.872;2023-11-21T16:40:16;8.00;99.90
13806;DHT22;6974;53.606;9.872;2023-11-21T16:42:44;8.00;99.90
13806;DHT22;6974;53.606;9.872;2023-11-21T16:45:11;8.00;99.90
13806;DHT22;6974;53.606;9.872;2023-11-21T16:47:38;8.00;99.90
13806;DHT22;6974;53.606;9.872;2023-11-21T16:50:09;7.90;99.90
13806;DHT22;6974;53.606;9.872;2023-11-21T16:52:35;7.90;99.90
13806;DHT22;6974;53.606;9.872;2023-11-21T16:55:04;7.90;99.90
13806;DHT22;6974;53.606;9.872;2023-11-21T16:57:32;7.80;99.90
13806;DHT22;6974;53.606;9.872;2023-11-21T16:59:59;7.80;99.90
13806;DHT22;6974;53.606;9.872;2023-11-21T17:02:26;7.70;99.90
13806;DHT22;6974;53.606;9.872;2023-11-21T17:04:53;7.70;99.90
13806;DHT22;6974;53.606;9.872;2023-11-21T17:07:20;7.60;99.90
13806;DHT22;6974;53.606;9.872;2023-11-21T17:09:47;7.60;99.90
13806;DHT22;6974;53.606;9.872;2023-11-21T17:12:14;7.60;99.90
13806;DHT22;6974;53.606;9.872;2023-11-21T17:14:42;7.60;99.90
13806;DHT22;6974;53.606;9.872;2023-11-21T17:17:10;7.50;99.90
13806;DHT22;6974;53.606;9.872;2023-11-21T17:19:39;7.40;99.90
13806;DHT22;6974;53.606;9.872;2023-11-21T17:22:06;7.40;99.90
13806;DHT22;6974;53.606;9.872;2023-11-21T17:24:33;7.40;99.90
13806;DHT22;6974;53.606;9.872;2023-11-21T17:27:02;7.30;99.90
13806;DHT22;6974;53.606;9.872;2023-11-21T17:29:28;7.30;99.90
13806;DHT22;6974;53.606;9.872;2023-11-21T17:31:57;7.30;99.90
13806;DHT22;6974;53.606;9.872;2023-11-21T17:34:24;7.30;99.90
13806;DHT22;6974;53.606;9.872;2023-11-21T17:36:50;7.30;99.90
13806;DHT22;6974;53.606;9.872;2023-11-21T17:39:17;7.30;99.90
13806;DHT22;6974;53.606;9.872;2023-11-21T17:41:44;7.20;99.90
13806;DHT22;6974;53.606;9.872;2023-11-21T17:44:11;7.20;99.90
13806;DHT22;6974;53.606;9.872;2023-11-21T17:46:38;7.20;99.90
13806;DHT22;6974;53.606;9.872;2023-11-21T17:49:06;7.20;99.90
13806;DHT22;6974;53.606;9.872;2023-11-21T17:51:37;7.20;99.90
13806;DHT22;6974;53.606;9.872;2023-11-21T17:54:05;7.10;99.90
13806;DHT22;6974;53.606;9.872;2023-11-21T17:56:34;7.00;99.90
13806;DHT22;6974;53.606;9.872;2023-11-21T17:59:01;7.00;99.90
13806;DHT22;6974;53.606;9.872;2023-11-21T18:01:35;7.00;99.90
13806;DHT22;6974;53.606;9.872;2023-11-21T18:04:03;7.10;99.90
13806;DHT22;6974;53.606;9.872;2023-11-21T18:06:32;7.00;99.90
13806;DHT22;6974;53.606;9.872;2023-11-21T18:09:04;7.00;99.90
13806;DHT22;6974;53.606;9.872;2023-11-21T18:11:34;7.00;99.90
13806;DHT22;6974;53.606;9.872;2023-11-21T18:14:01;7.00;99.90
13806;DHT22;6974;53.606;9.872;2023-11-21T18:16:31;7.00;99.90
13806;DHT22;6974;53.606;9.872;2023-11-21T18:18:58;6.90;99.90
13806;DHT22;6974;53.606;9.872;2023-11-21T18:21:25;6.90;99.90
13806;DHT22;6974;53.606;9.872;2023-11-21T18:23:53;6.90;99.90
13806;DHT22;6974;53.606;9.872;2023-11-21T18:26:20;6.90;99.90
13806;DHT22;6974;53.606;9.872;2023-11-21T18:28:53;6.90;99.90
13806;DHT22;6974;53.606;9.872;2023-11-21T18:31:21;6.90;99.90
13806;DHT22;6974;53.606;9.872;2023-11-21T18:33:48;6.80;99.90
13806;DHT22;6974;53.606;9.872;2023-11-21T18:36:15;6.90;99.90
13806;DHT22;6974;53.606;9.872;2023-11-21T18:38:42;6.90;99.90
13806;DHT22;6974;53.606;9.872;2023-11-21T18:41:10;6.90;99.90
13806;DHT22;6974;53.606;9.872;2023-11-21T18:43:39;6.90;99.90
13806;DHT22;6974;53.606;9.872;2023-11-21T18:46:05;6.90;99.90
13806;DHT22;6974;53.606;9.872;2023-11-21T18:48:32;6.90;99.90
13806;DHT22;6974;53.606;9.872;2023-11-21T18:50:59;6.90;99.90
13806;DHT22;6974;53.606;9.872;2023-11-21T18:53:26;6.90;99.90
13806;DHT22;6974;53.606;9.872;2023-11-21T18:55:55;6.90;99.90
13806;DHT22;6974;53.606;9.872;2023-11-21T18:58:23;6.90;99.90
13806;DHT22;6974;53.606;9.872;2023-11-21T19:00:50;6.90;99.90
13806;DHT22;6974;53.606;9.872;2023-11-21T19:03:17;6.90;99.90
13806;DHT22;6974;53.606;9.872;2023-11-21T19:05:44;6.90;99.90
13806;DHT22;6974;53.606;9.872;2023-11-21T19:08:11;7.00;99.90
13806;DHT22;6974;53.606;9.872;2023-11-21T19:10:38;7.00;99.90
13806;DHT22;6974;53.606;9.872;2023-11-21T19:13:05;6.90;99.90
13806;DHT22;6974;53.606;9.872;2023-11-21T19:15:33;7.00;99.90
13806;DHT22;6974;53.606;9.872;2023-11-21T19:18:00;7.00;99.90
13806;DHT22;6974;53.606;9.872;2023-11-21T19:20:28;7.00;99.90
13806;DHT22;6974;53.606;9.872;2023-11-21T19:22:55;7.00;99.90
13806;DHT22;6974;53.606;9.872;2023-11-21T19:25:22;7.00;99.90
13806;DHT22;6974;53.606;9.872;2023-11-21T19:27:49;7.00;99.90
13806;DHT22;6974;53.606;9.872;2023-11-21T19:30:17;7.00;99.90
13806;DHT22;6974;53.606;9.872;2023-11-21T19:32:45;7.00;99.90
13806;DHT22;6974;53.606;9.872;2023-11-21T19:35:12;7.00;99.90
13806;DHT22;6974;53.606;9.872;2023-11-21T19:37:39;7.00;99.90
13806;DHT22;6974;53.606;9.872;2023-11-21T19:40:06;7.00;99.90
13806;DHT22;6974;53.606;9.872;2023-11-21T19:42:33;7.00;99.90
13806;DHT22;6974;53.606;9.872;2023-11-21T19:45:02;7.00;99.90